Big Bear Station Historical Data
Daily Summary for March 26, 2019 Units:  English    Metric   Both
Next Day »
Daily Weekly Monthly Yearly Custom
  High: Low: Average:
Temperature: 55.6 °F 27.0 °F 39.5 °F
Dew Point: 30.0 °F 5.3 °F 19.4 °F
Humidity: 90% 16% 52%
Wind Speed: 5.8mph 0.0mph 1mph
Wind Gust: -999.0mph - -
Wind- - WNW
Pressure: 23.56 in 23.47 in -
Precipitation: 0.00 in    
Historical Graphs
 
 
Tabular Data for March 26, 2019
Time Temperature Dew Point Pressure Wind Wind Speed Wind Gust Humidity Rainfall Rate (Hourly)
00:05 29.1 °F 22.8 °F 23.56 in Calm   -999.0 mph 77% 0.00 in
00:20 28.9 °F 22.9 °F 23.55 in Calm   -999.0 mph 78% 0.00 in
00:35 28.6 °F 22.3 °F 23.55 in Calm   -999.0 mph 77% 0.00 in
00:50 28.8 °F 22.5 °F 23.55 in Calm   -999.0 mph 77% 0.00 in
01:05 28.6 °F 23.5 °F 23.54 in Calm   -999.0 mph 81% 0.00 in
01:21 28.6 °F 22.6 °F 23.54 in Calm   -999.0 mph 78% 0.00 in
01:36 28.4 °F 22.4 °F 23.54 in Calm   -999.0 mph 78% 0.00 in
01:51 28.4 °F 23.0 °F 23.53 in Calm   -999.0 mph 80% 0.00 in
02:06 28.2 °F 23.7 °F 23.53 in Calm   -999.0 mph 83% 0.00 in
02:21 28.6 °F 24.4 °F 23.53 in Calm   -999.0 mph 84% 0.00 in
02:37 28.6 °F 24.4 °F 23.52 in Calm   -999.0 mph 84% 0.00 in
02:52 28.2 °F 24.0 °F 23.51 in Calm   -999.0 mph 84% 0.00 in
03:07 28.6 °F 24.1 °F 23.51 in Calm   -999.0 mph 83% 0.00 in
03:22 28.4 °F 23.9 °F 23.50 in Calm   -999.0 mph 83% 0.00 in
03:37 28.2 °F 24.3 °F 23.50 in Calm   -999.0 mph 85% 0.00 in
03:53 28.0 °F 24.4 °F 23.49 in Calm   -999.0 mph 86% 0.00 in
04:08 28.0 °F 24.1 °F 23.49 in Calm   -999.0 mph 85% 0.00 in
04:23 27.7 °F 22.6 °F 23.49 in Calm   -999.0 mph 81% 0.00 in
04:38 27.5 °F 23.6 °F 23.49 in Calm   -999.0 mph 85% 0.00 in
04:53 27.5 °F 24.1 °F 23.49 in Calm   -999.0 mph 87% 0.00 in
05:09 27.3 °F 23.9 °F 23.49 in Calm   -999.0 mph 87% 0.00 in
05:24 27.3 °F 23.9 °F 23.49 in Calm   -999.0 mph 87% 0.00 in
05:39 27.1 °F 23.7 °F 23.49 in Calm   -999.0 mph 87% 0.00 in
05:54 27.0 °F 23.6 °F 23.49 in Calm   -999.0 mph 87% 0.00 in
06:09 27.1 °F 23.7 °F 23.49 in Calm   -999.0 mph 87% 0.00 in
06:25 27.1 °F 23.5 °F 23.49 in Calm   -999.0 mph 86% 0.00 in
06:40 27.3 °F 23.7 °F 23.50 in Calm   -999.0 mph 86% 0.00 in
06:55 27.0 °F 24.2 °F 23.50 in Calm   -999.0 mph 89% 0.00 in
07:10 27.5 °F 25.0 °F 23.50 in Calm   -999.0 mph 90% 0.00 in
07:26 27.9 °F 25.3 °F 23.50 in Calm   -999.0 mph 90% 0.00 in
07:41 28.0 °F 25.4 °F 23.50 in Calm   -999.0 mph 90% 0.00 in
07:56 28.9 °F 26.1 °F 23.50 in Calm   -999.0 mph 89% 0.00 in
08:11 29.5 °F 26.7 °F 23.50 in Calm   -999.0 mph 89% 0.00 in
08:26 31.5 °F 27.5 °F 23.50 in Calm   -999.0 mph 85% 0.00 in
08:42 34.0 °F 30.0 °F 23.50 in Calm   -999.0 mph 85% 0.00 in
08:57 37.6 °F 20.6 °F 23.51 in Calm   -999.0 mph 50% 0.00 in
09:12 40.5 °F 15.0 °F 23.51 in Calm   -999.0 mph 35% 0.00 in
09:27 43.7 °F 7.3 °F 23.51 in Calm   -999.0 mph 22% 0.00 in
09:42 46.2 °F 8.4 °F 23.51 in Calm   -999.0 mph 21% 0.00 in
09:58 48.6 °F 7.0 °F 23.51 in NW 2.7 mph -999.0 mph 18% 0.00 in
10:13 49.3 °F 11.0 °F 23.51 in SW 3.7 mph -999.0 mph 21% 0.00 in
10:28 49.8 °F 5.3 °F 23.52 in NNW 4.7 mph -999.0 mph 16% 0.00 in
10:44 50.2 °F 9.5 °F 23.52 in NW 2.2 mph -999.0 mph 19% 0.00 in
10:59 51.3 °F 7.9 °F 23.52 in NNW 3.7 mph -999.0 mph 17% 0.00 in
11:14 51.3 °F 10.4 °F 23.52 in NNW 1.7 mph -999.0 mph 19% 0.00 in
11:29 52.2 °F 14.5 °F 23.52 in NNW 3.7 mph -999.0 mph 22% 0.00 in
11:44 52.2 °F 12.3 °F 23.52 in SW 5.8 mph -999.0 mph 20% 0.00 in
12:00 52.3 °F 12.4 °F 23.52 in Calm   -999.0 mph 20% 0.00 in
12:15 51.1 °F 19.1 °F 23.52 in NW 2.7 mph -999.0 mph 28% 0.00 in
12:30 51.1 °F 12.5 °F 23.51 in NW 5.3 mph -999.0 mph 21% 0.00 in
12:45 52.7 °F 17.8 °F 23.51 in NNW 4.2 mph -999.0 mph 25% 0.00 in
13:00 54.5 °F 17.4 °F 23.51 in NW 3.7 mph -999.0 mph 23% 0.00 in
13:16 55.6 °F 19.3 °F 23.51 in WNW 3.2 mph -999.0 mph 24% 0.00 in
13:31 55.2 °F 15.9 °F 23.51 in Calm   -999.0 mph 21% 0.00 in
13:46 54.5 °F 22.0 °F 23.51 in NNW 4.2 mph -999.0 mph 28% 0.00 in
14:02 52.7 °F 21.3 °F 23.51 in NNW 3.2 mph -999.0 mph 29% 0.00 in
14:17 52.2 °F 20.0 °F 23.51 in NW 3.2 mph -999.0 mph 28% 0.00 in
14:32 51.6 °F 21.9 °F 23.50 in NNW 3.2 mph -999.0 mph 31% 0.00 in
14:48 52.3 °F 21.0 °F 23.49 in NW 1.7 mph -999.0 mph 29% 0.00 in
15:03 53.6 °F 20.4 °F 23.49 in Calm   -999.0 mph 27% 0.00 in
15:18 55.0 °F 20.7 °F 23.49 in WSW 4.2 mph -999.0 mph 26% 0.00 in
15:34 53.8 °F 21.4 °F 23.49 in NW 5.3 mph -999.0 mph 28% 0.00 in
15:49 54.5 °F 20.3 °F 23.49 in NNW 3.7 mph -999.0 mph 26% 0.00 in
16:04 53.8 °F 18.8 °F 23.48 in NW 1.7 mph -999.0 mph 25% 0.00 in
16:19 52.9 °F 18.9 °F 23.48 in NW 3.2 mph -999.0 mph 26% 0.00 in
16:35 52.5 °F 15.7 °F 23.48 in South 2.7 mph -999.0 mph 23% 0.00 in
16:50 52.0 °F 17.2 °F 23.48 in West 1.7 mph -999.0 mph 25% 0.00 in
17:05 53.6 °F 15.6 °F 23.48 in SSE 4.2 mph -999.0 mph 22% 0.00 in
17:20 54.5 °F 18.4 °F 23.47 in SSW 2.2 mph -999.0 mph 24% 0.00 in
17:36 53.6 °F 16.7 °F 23.47 in North 1.1 mph -999.0 mph 23% 0.00 in
17:51 51.4 °F 15.8 °F 23.47 in South 2.7 mph -999.0 mph 24% 0.00 in
18:06 50.0 °F 15.5 °F 23.47 in Calm   -999.0 mph 25% 0.00 in
18:21 48.4 °F 17.6 °F 23.47 in Calm   -999.0 mph 29% 0.00 in
18:36 46.2 °F 18.7 °F 23.47 in Calm   -999.0 mph 33% 0.00 in
18:52 45.1 °F 18.4 °F 23.47 in Calm   -999.0 mph 34% 0.00 in
19:07 43.3 °F 17.5 °F 23.47 in Calm   -999.0 mph 35% 0.00 in
19:22 41.5 °F 21.7 °F 23.47 in Calm   -999.0 mph 45% 0.00 in
19:37 40.6 °F 19.8 °F 23.47 in Calm   -999.0 mph 43% 0.00 in
19:52 39.4 °F 19.3 °F 23.47 in Calm   -999.0 mph 44% 0.00 in
20:08 38.5 °F 19.0 °F 23.47 in Calm   -999.0 mph 45% 0.00 in
20:23 37.6 °F 16.6 °F 23.47 in Calm   -999.0 mph 42% 0.00 in
20:38 36.9 °F 17.0 °F 23.48 in Calm   -999.0 mph 44% 0.00 in
20:53 35.8 °F 17.5 °F 23.48 in Calm   -999.0 mph 47% 0.00 in
21:08 35.4 °F 18.6 °F 23.49 in Calm   -999.0 mph 50% 0.00 in
21:24 35.1 °F 19.2 °F 23.49 in Calm   -999.0 mph 52% 0.00 in
21:39 34.5 °F 18.7 °F 23.49 in Calm   -999.0 mph 52% 0.00 in
21:55 34.0 °F 18.2 °F 23.49 in Calm   -999.0 mph 52% 0.00 in
22:10 33.8 °F 17.1 °F 23.49 in Calm   -999.0 mph 50% 0.00 in
22:25 33.3 °F 18.4 °F 23.49 in Calm   -999.0 mph 54% 0.00 in
22:40 33.1 °F 17.4 °F 23.48 in Calm   -999.0 mph 52% 0.00 in
22:55 32.5 °F 19.4 °F 23.48 in Calm   -999.0 mph 58% 0.00 in
23:11 32.5 °F 18.9 °F 23.48 in Calm   -999.0 mph 57% 0.00 in
23:26 32.5 °F 19.4 °F 23.48 in Calm   -999.0 mph 58% 0.00 in
23:41 34.3 °F 14.1 °F 23.47 in Calm   -999.0 mph 43% 0.00 in
23:56 36.7 °F 12.2 °F 23.47 in Calm   -999.0 mph 36% 0.00 in
Big Bear CA Weather